createdAt,value
2023-05-11T00:09:06.752Z,3.50
2023-05-11T00:19:09.921Z,3.30
2023-05-11T00:29:14.471Z,3.20
2023-05-11T00:39:18.471Z,2.70
2023-05-11T00:49:23.123Z,3.00
2023-05-11T00:59:26.391Z,2.90
2023-05-11T01:09:39.299Z,3.20
2023-05-11T01:19:46.126Z,2.80
2023-05-11T01:30:24.954Z,2.90
2023-05-11T01:40:33.799Z,2.70
2023-05-11T01:50:37.525Z,2.80
2023-05-11T02:00:43.655Z,2.70
2023-05-11T02:10:47.810Z,2.50
2023-05-11T02:20:53.139Z,2.20
2023-05-11T02:30:58.208Z,2.20
2023-05-11T02:41:05.956Z,1.70
2023-05-11T02:51:11.756Z,1.70
2023-05-11T03:01:22.784Z,2.80
2023-05-11T03:11:26.931Z,1.50
2023-05-11T03:21:32.326Z,1.50
2023-05-11T03:31:35.961Z,1.70
2023-05-11T03:41:41.393Z,1.70
2023-05-11T03:51:46.436Z,2.00
2023-05-11T04:01:53.180Z,2.00
2023-05-11T04:11:56.446Z,2.40
2023-05-11T04:22:01.100Z,2.40
2023-05-11T04:32:04.414Z,2.90
2023-05-11T04:42:09.653Z,3.70
2023-05-11T04:52:13.048Z,4.40
2023-05-11T05:02:21.677Z,5.00
2023-05-11T05:12:25.112Z,5.60
2023-05-11T05:22:29.760Z,6.10
2023-05-11T05:32:33.133Z,6.80
2023-05-11T05:42:37.946Z,7.20
2023-05-11T05:52:42.353Z,8.80
2023-05-11T06:02:47.853Z,10.00
2023-05-11T06:12:59.316Z,9.80
2023-05-11T06:23:05.850Z,10.20
2023-05-11T06:33:12.510Z,11.00
2023-05-11T06:43:18.162Z,11.80
2023-05-11T06:53:23.790Z,12.50
2023-05-11T07:03:28.336Z,13.20
2023-05-11T07:13:31.673Z,14.30
2023-05-11T07:23:36.283Z,18.40
2023-05-11T07:33:39.611Z,24.40
2023-05-11T07:43:44.129Z,29.10
2023-05-11T07:53:47.387Z,32.90
2023-05-11T08:03:51.947Z,35.80
2023-05-11T08:13:55.099Z,38.40
2023-05-11T08:23:59.633Z,39.90
2023-05-11T08:34:02.912Z,41.10
2023-05-11T08:44:08.407Z,42.40
2023-05-11T08:54:12.793Z,43.80
2023-05-11T09:04:17.610Z,46.60
2023-05-11T09:14:27.060Z,46.60
2023-05-11T09:24:32.452Z,48.50
2023-05-11T09:34:36.085Z,47.90
2023-05-11T09:44:41.756Z,49.80
2023-05-11T09:54:46.413Z,50.40
2023-05-11T10:04:51.789Z,50.50
2023-05-11T10:14:57.866Z,51.80
2023-05-11T10:25:02.820Z,52.30
2023-05-11T10:35:07.537Z,52.20
2023-05-11T10:45:17.624Z,48.80
2023-05-11T10:55:26.697Z,45.50
2023-05-11T11:05:38.973Z,46.80
2023-05-11T11:16:10.648Z,47.20
2023-05-11T11:26:16.508Z,49.50
2023-05-11T11:36:19.740Z,48.90
2023-05-11T11:46:30.836Z,49.50
2023-05-11T11:56:41.676Z,46.30
2023-05-11T12:06:48.092Z,43.30
2023-05-11T12:17:04.774Z,44.10
2023-05-11T12:27:09.601Z,45.20
2023-05-11T12:37:12.782Z,44.20
2023-05-11T12:47:17.757Z,41.60
2023-05-11T12:57:25.310Z,40.70
2023-05-11T13:07:29.928Z,39.50
2023-05-11T13:17:34.092Z,31.20
2023-05-11T13:27:39.265Z,24.90
2023-05-11T13:37:42.451Z,22.90
2023-05-11T13:47:47.667Z,21.90
2023-05-11T13:57:51.360Z,21.40
2023-05-11T14:07:56.844Z,21.60
2023-05-11T14:18:00.726Z,20.70
2023-05-11T14:28:05.664Z,20.50
2023-05-11T14:38:10.751Z,20.40
2023-05-11T14:48:15.324Z,20.00
2023-05-11T14:58:18.487Z,19.80
2023-05-11T15:08:29.715Z,19.50
2023-05-11T15:18:33.567Z,19.20
2023-05-11T15:28:38.137Z,19.00
2023-05-11T15:38:41.725Z,18.70
2023-05-11T15:48:46.339Z,18.50
2023-05-11T15:58:49.502Z,18.20
2023-05-11T16:08:54.101Z,17.90
2023-05-11T16:18:57.267Z,17.60
2023-05-11T16:29:01.894Z,17.20
2023-05-11T16:39:05.147Z,17.00
2023-05-11T16:49:09.696Z,16.70
2023-05-11T16:59:12.828Z,16.80
2023-05-11T17:09:17.423Z,16.10
2023-05-11T17:19:20.648Z,15.70
2023-05-11T17:29:25.556Z,15.30
2023-05-11T17:39:28.754Z,15.00
2023-05-11T17:49:33.930Z,14.60
2023-05-11T17:59:37.113Z,14.40
2023-05-11T18:09:41.977Z,14.00
2023-05-11T18:19:45.335Z,13.50
2023-05-11T18:29:49.915Z,13.10
2023-05-11T18:39:53.220Z,12.80
2023-05-11T18:49:58.567Z,12.40
2023-05-11T19:00:04.109Z,12.10
2023-05-11T19:10:10.105Z,11.60
2023-05-11T19:20:13.644Z,11.50
2023-05-11T19:30:18.475Z,11.20
2023-05-11T19:50:32.378Z,10.50
2023-05-11T20:00:35.646Z,10.20
2023-05-11T20:10:40.296Z,9.90
2023-05-11T20:20:43.552Z,9.40
2023-05-11T20:30:48.247Z,9.00
2023-05-11T20:40:51.719Z,8.80
2023-05-11T20:50:56.585Z,8.80
2023-05-11T21:00:59.799Z,8.70
2023-05-11T21:11:04.623Z,8.40
2023-05-11T21:21:09.183Z,8.20
2023-05-11T21:31:13.699Z,8.10
2023-05-11T21:41:17.482Z,7.90
2023-05-11T21:51:22.019Z,8.00
2023-05-11T22:01:25.403Z,7.50
2023-05-11T22:11:29.923Z,7.70
2023-05-11T22:21:33.097Z,7.70
2023-05-11T22:31:37.809Z,8.20
2023-05-11T22:41:41.040Z,7.70
2023-05-11T22:51:45.656Z,7.70
2023-05-11T23:01:48.917Z,7.70
2023-05-11T23:11:53.517Z,7.30
2023-05-11T23:21:56.731Z,7.20
2023-05-11T23:32:01.968Z,6.90
2023-05-11T23:42:06.228Z,6.20
2023-05-11T23:52:10.978Z,6.50
